This is the latest recevied weather packets stored in our database for station/object DK5GB. If no packets are shown the sender has not sent any weather packets the latest 10 day(s).
| Time | Temp. | Humidity | Pressure | Rain* | Wind** | Luminosity | Snow |
|---|---|---|---|---|---|---|---|
| 1777347337 | 6.11° C | 81% | 1020.9 hPa | 0 mm | - | - | - |
| 1777344917 | 6.11° C | 81% | 1021.1 hPa | 0 mm | - | - | - |
| 1777343738 | 6.11° C | 81% | 1021.3 hPa | 0 mm | - | - | - |
| 1777341917 | 6.67° C | 80% | 1021.3 hPa | 0 mm | - | - | - |
| 1777341317 | 6.67° C | 79% | 1021.4 hPa | 0 mm | - | - | - |
| 1777336517 | 7.22° C | 77% | 1021.6 hPa | 0 mm | - | - | - |
| 1777325716 | 10.56° C | 67% | 1022.3 hPa | 0 mm | - | - | - |
| 1777325138 | 11.11° C | 65% | 1022.3 hPa | 0 mm | - | - | - |
| 1777319756 | 12.22° C | 57% | 1022.6 hPa | 0 mm | - | - | - |
| 1777317316 | 12.78° C | 56% | 1022.6 hPa | 0 mm | - | - | - |
| 1777314916 | 13.89° C | 54% | 1022.3 hPa | 0 mm | - | - | - |
| 1777313116 | 15° C | 52% | 1022 hPa | 0 mm | - | - | - |
| 1777312516 | 15.56° C | 51% | 1022 hPa | 0 mm | - | - | - |
| 1777304136 | 19.44° C | 37% | 1022.6 hPa | 0 mm | - | - | - |
| 1777302916 | 20° C | 39% | 1022.6 hPa | 0 mm | - | - | - |
| 1777291517 | 20° C | 41% | 1024.6 hPa | 0 mm | - | - | - |
| 1777288517 | 18.89° C | 42% | 1025 hPa | 0 mm | - | - | - |
| 1777278917 | 16.67° C | 49% | 1026.2 hPa | 0 mm | - | - | - |
| 1777275917 | 15° C | 59% | 1026.3 hPa | 0 mm | - | - | - |
| 1777273537 | 12.78° C | 63% | 1026.2 hPa | 0 mm | - | - | - |
| 1777272918 | 12.22° C | 63% | 1026.4 hPa | 0 mm | - | - | - |
| 1777269917 | 7.22° C | 84% | 1026.1 hPa | 0 mm | - | - | - |
| 1777269337 | 6.11° C | 85% | 1025.9 hPa | 0 mm | - | - | - |
| 1777267538 | 3.89° C | 87% | 1025.7 hPa | 0 mm | - | - | - |
| 1777266917 | 3.33° C | 87% | 1025.7 hPa | 0 mm | - | - | - |
* Rain latest hour (hover to see other rain measurements)
** Current wind speed in m/s (hover to see current wind gust speed)